Time,TemperatureF,DewpointF,PressureIn,WindDirection,WindDirectionDegrees,WindSpeedMPH,WindSpeedGustMPH,Humidity,HourlyPrecipIn,Conditions,Clouds,dailyrainin,SoftwareType,DateUTC
2013-06-26 00:10:00,57.0,56.0,-100.00,SE,145,1.0,2.0,96,-99.99,,,-99.99,,2013-06-26 07:10:00,
2013-06-26 02:10:00,57.0,56.0,-100.00,South,170,1.0,3.0,96,-99.99,,,-99.99,,2013-06-26 09:10:00,
2013-06-26 03:10:00,57.0,56.0,-100.00,West,280,1.0,3.0,96,-99.99,,,-99.99,,2013-06-26 10:10:00,
2013-06-26 05:10:00,56.0,55.0,-100.00,SSE,165,1.0,3.0,96,-99.99,,,-99.99,,2013-06-26 12:10:00,
2013-06-26 06:10:00,57.0,56.0,-100.00,SW,225,1.0,2.0,96,-99.99,,,-99.99,,2013-06-26 13:10:00,
2013-06-26 07:10:00,61.0,57.0,-100.00,East,90,1.0,3.0,86,-99.99,,,-99.99,,2013-06-26 14:10:00,
2013-06-26 08:10:00,64.0,55.0,-100.00,SE,145,3.0,5.0,72,-99.99,,,-99.99,,2013-06-26 15:10:00,
2013-06-26 09:10:00,67.0,55.0,-100.00,South,190,1.0,5.0,65,-99.99,,,-99.99,,2013-06-26 16:10:00,
2013-06-26 10:10:00,70.0,52.0,-100.00,SE,130,5.0,12.0,52,-99.99,,,-99.99,,2013-06-26 17:10:00,
2013-06-26 11:10:00,71.0,52.0,-100.00,ESE,115,5.0,8.0,51,-99.99,,,-99.99,,2013-06-26 18:10:00,
2013-06-26 14:10:00,75.0,53.0,-100.00,SSE,160,2.0,5.0,46,-99.99,,,-99.99,,2013-06-26 21:10:00,
2013-06-26 15:10:00,75.0,51.0,-100.00,NNW,345,1.0,6.0,42,-99.99,,,-99.99,,2013-06-26 22:10:00,
2013-06-26 16:01:00,75.0,51.0,-100.00,NNW,345,1.0,6.0,42,-99.99,,,-99.99,,2013-06-26 23:01:00,
2013-06-26 16:10:00,76.0,51.0,-100.00,NW,320,5.0,10.0,41,-99.99,,,-99.99,,2013-06-26 23:10:00,
2013-06-26 17:01:00,76.0,51.0,-100.00,NW,320,5.0,10.0,41,-99.99,,,-99.99,,2013-06-27 00:01:00,
2013-06-26 17:10:00,78.0,52.0,-100.00,East,90,1.0,5.0,40,-99.99,,,-99.99,,2013-06-27 00:10:00,
2013-06-26 18:10:00,77.0,52.0,-100.00,South,185,8.0,13.0,41,-99.99,,,-99.99,,2013-06-27 01:10:00,
2013-06-26 19:10:00,76.0,52.0,-100.00,South,180,5.0,9.0,43,-99.99,,,-99.99,,2013-06-27 02:10:00,
2013-06-26 20:10:00,73.0,51.0,-100.00,SSE,155,8.0,17.0,45,-99.99,,,-99.99,,2013-06-27 03:10:00,
2013-06-26 21:10:00,70.0,49.0,-100.00,SE,140,6.0,9.0,47,-99.99,,,-99.99,,2013-06-27 04:10:00,
2013-06-26 22:10:00,67.0,51.0,-100.00,SSE,155,6.0,7.0,56,-99.99,,,-99.99,,2013-06-27 05:10:00,